createdAt,value
2019-04-11T02:55:46.561Z,2.38
2019-04-11T02:58:20.625Z,2.40
2019-04-11T03:00:55.947Z,2.41
2019-04-11T03:04:16.779Z,2.47
2019-04-11T03:06:51.999Z,2.43
2019-04-11T03:09:26.940Z,2.48
2019-04-11T03:12:02.938Z,2.52
2019-04-11T03:14:54.472Z,2.56
2019-04-11T03:17:19.554Z,2.56
2019-04-11T03:20:04.340Z,2.43
2019-04-11T03:22:24.718Z,2.54
2019-04-11T03:25:00.378Z,2.50
2019-04-11T03:27:36.984Z,2.51
2019-04-11T03:30:19.622Z,2.35
2019-04-11T03:38:27.668Z,2.57
2019-04-11T04:49:04.774Z,3.01
2019-04-11T08:51:14.846Z,7.22
2019-04-11T08:54:07.238Z,7.37
2019-04-11T09:43:19.894Z,8.60
2019-04-11T09:46:12.537Z,8.60
2019-04-11T09:49:23.673Z,8.75
2019-04-11T16:20:23.750Z,8.13
2019-04-11T16:23:17.054Z,8.06
2019-04-11T16:25:55.522Z,7.96
2019-04-11T16:28:47.488Z,7.89
2019-04-11T16:31:35.572Z,8.00
2019-04-11T16:34:31.232Z,7.92
2019-04-11T16:37:25.458Z,8.10
2019-04-11T16:40:35.559Z,8.03
2019-04-11T16:43:10.091Z,8.04
2019-04-11T16:46:30.886Z,8.13
2019-04-11T16:49:20.821Z,8.03
2019-04-11T16:51:54.656Z,7.95
2019-04-11T16:54:27.850Z,7.85
2019-04-11T16:57:01.724Z,7.80
2019-04-11T16:59:37.949Z,7.70
2019-04-11T17:02:12.092Z,7.75
2019-04-11T17:04:46.116Z,7.72
2019-04-11T17:07:46.453Z,7.74
2019-04-11T17:10:24.633Z,7.56
2019-04-11T17:12:58.213Z,7.55
2019-04-11T20:07:09.405Z,5.88
2019-04-11T20:09:43.450Z,5.89
2019-04-11T20:12:18.978Z,5.86
2019-04-11T20:14:50.834Z,5.86
2019-04-11T21:33:24.473Z,5.30
2019-04-11T21:35:58.208Z,5.34
2019-04-11T21:38:32.117Z,5.38
2019-04-11T21:41:16.846Z,5.38
2019-04-11T21:43:50.107Z,5.26
2019-04-11T21:46:24.203Z,5.24
2019-04-11T21:48:57.688Z,5.19
2019-04-11T21:51:31.347Z,5.23
2019-04-11T21:54:04.522Z,5.20
2019-04-11T21:56:39.209Z,5.20
2019-04-11T21:59:12.703Z,5.19
2019-04-11T22:01:57.750Z,5.29
2019-04-11T22:04:31.251Z,5.24
2019-04-11T22:07:04.102Z,5.24
2019-04-11T22:09:55.644Z,5.22
2019-04-11T22:12:42.980Z,4.67
2019-04-11T22:15:26.746Z,5.15
2019-04-11T22:18:00.299Z,5.12
2019-04-11T22:20:33.683Z,5.09
2019-04-11T22:23:07.151Z,5.14
2019-04-11T22:25:40.770Z,5.18
2019-04-11T22:28:14.621Z,5.13
2019-04-11T22:30:54.869Z,5.08
2019-04-11T22:33:47.743Z,5.06
2019-04-11T22:36:43.011Z,5.14
2019-04-11T22:39:16.270Z,5.10
2019-04-11T22:41:49.769Z,5.09
2019-04-11T22:44:24.667Z,5.07
2019-04-11T22:47:08.038Z,5.09
2019-04-11T22:49:41.887Z,5.08
2019-04-11T22:52:15.429Z,5.10
2019-04-11T22:54:48.925Z,5.04
2019-04-11T22:57:22.201Z,5.04
2019-04-11T22:59:56.147Z,5.08
2019-04-11T23:02:57.851Z,5.04
2019-04-11T23:05:51.364Z,5.08
2019-04-11T23:08:24.597Z,4.99
2019-04-11T23:10:57.871Z,4.94
2019-04-11T23:13:45.693Z,4.97
2019-04-11T23:16:19.776Z,4.92
2019-04-11T23:18:53.590Z,4.97
2019-04-11T23:21:26.846Z,4.92
2019-04-11T23:24:11.333Z,4.89
2019-04-11T23:26:35.889Z,4.91
2019-04-11T23:29:09.420Z,4.90
2019-04-11T23:31:42.910Z,4.93
2019-04-11T23:34:17.055Z,4.94
2019-04-11T23:37:00.764Z,4.99
2019-04-11T23:39:33.971Z,4.82
2019-04-11T23:42:08.044Z,4.83
2019-04-11T23:44:41.862Z,4.85
2019-04-11T23:47:15.633Z,4.70
2019-04-11T23:50:03.412Z,4.76
2019-04-11T23:52:45.789Z,4.86
2019-04-11T23:55:19.047Z,4.76
2019-04-11T23:57:52.542Z,4.73
